createdAt,value
2017-07-01T00:00:54.429Z,1003.42
2017-07-01T00:02:03.314Z,1003.41
2017-07-01T00:03:12.826Z,1003.37
2017-07-01T00:04:22.038Z,1003.39
2017-07-01T00:05:31.255Z,1003.37
2017-07-01T00:06:40.142Z,1003.31
2017-07-01T00:07:49.363Z,1003.36
2017-07-01T00:08:58.778Z,1003.32
2017-07-01T00:10:07.999Z,1003.35
2017-07-01T00:11:16.888Z,1003.34
2017-07-01T00:12:26.103Z,1003.34
2017-07-01T00:13:34.991Z,1003.28
2017-07-01T00:14:44.256Z,1003.34
2017-07-01T00:15:53.143Z,1003.33
2017-07-01T00:17:02.046Z,1003.34
2017-07-01T00:18:10.939Z,1003.35
2017-07-01T00:19:20.151Z,1003.37
2017-07-01T00:20:29.624Z,1003.36
2017-07-01T00:21:38.515Z,1003.42
2017-07-01T00:22:47.735Z,1003.45
2017-07-01T00:23:56.622Z,1003.48
2017-07-01T00:25:05.514Z,1003.49
2017-07-01T00:26:14.555Z,1003.53
2017-07-01T00:27:23.768Z,1003.5
2017-07-01T00:28:32.978Z,1003.48
2017-07-01T00:29:42.211Z,1003.52
2017-07-01T00:30:51.425Z,1003.53
2017-07-01T00:32:00.712Z,1003.48
2017-07-01T00:33:10.252Z,1003.51
2017-07-01T00:34:19.468Z,1003.5
2017-07-01T00:35:28.360Z,1003.49
2017-07-01T00:36:37.251Z,1003.5
2017-07-01T00:37:46.340Z,1003.54
2017-07-01T00:38:55.553Z,1003.52
2017-07-01T00:40:04.763Z,1003.56
2017-07-01T00:41:13.975Z,1003.52
2017-07-01T00:42:22.866Z,1003.52
2017-07-01T00:43:31.928Z,1003.51
2017-07-01T00:44:41.146Z,1003.52
2017-07-01T00:45:50.034Z,1003.53
2017-07-01T00:46:58.989Z,1003.55
2017-07-01T00:48:07.882Z,1003.5
2017-07-01T00:49:17.102Z,1003.52
2017-07-01T00:50:26.318Z,1003.55
2017-07-01T00:51:35.542Z,1003.48
2017-07-01T00:52:44.761Z,1003.51
2017-07-01T00:53:54.301Z,1003.43
2017-07-01T00:55:03.896Z,1003.47
2017-07-01T00:56:13.107Z,1003.45
2017-07-01T00:57:21.999Z,1003.49
2017-07-01T00:58:31.536Z,1003.48
2017-07-01T00:59:40.427Z,1003.47
2017-07-01T01:00:50.014Z,1003.46
2017-07-01T01:01:58.907Z,1003.48
2017-07-01T01:03:07.798Z,1003.46
2017-07-01T01:04:16.690Z,1003.47
2017-07-01T01:05:26.231Z,1003.46
2017-07-01T01:06:35.123Z,1003.45
2017-07-01T01:07:44.341Z,1003.45
2017-07-01T01:08:53.237Z,1003.44
2017-07-01T01:10:02.127Z,1003.39
2017-07-01T01:11:11.012Z,1003.41
2017-07-01T01:12:20.049Z,1003.37
2017-07-01T01:13:28.934Z,1003.4
2017-07-01T01:14:38.478Z,1003.38
2017-07-01T01:15:47.378Z,1003.38
2017-07-01T01:16:56.267Z,1003.41
2017-07-01T01:18:05.257Z,1003.43
2017-07-01T01:19:14.144Z,1003.44
2017-07-01T01:20:23.685Z,1003.44
2017-07-01T01:21:32.895Z,1003.45
2017-07-01T01:22:42.106Z,1003.43
2017-07-01T01:23:51.050Z,1003.42
2017-07-01T01:25:00.265Z,1003.39
2017-07-01T01:26:09.478Z,1003.39
2017-07-01T01:27:18.371Z,1003.41
2017-07-01T01:28:27.261Z,1003.39
2017-07-01T01:29:36.201Z,1003.36
2017-07-01T01:30:45.741Z,1003.4
2017-07-01T01:31:54.959Z,1003.37
2017-07-01T01:33:03.846Z,1003.38
2017-07-01T01:34:13.059Z,1003.39
2017-07-01T01:35:22.150Z,1003.32
2017-07-01T01:36:31.684Z,1003.31
2017-07-01T01:37:40.571Z,1003.3
2017-07-01T01:38:49.790Z,1003.31
2017-07-01T01:39:59.010Z,1003.28
2017-07-01T01:41:08.097Z,1003.22
2017-07-01T01:42:16.998Z,1003.28
2017-07-01T01:43:25.886Z,1003.25
2017-07-01T01:44:34.776Z,1003.26
2017-07-01T01:45:43.665Z,1003.3
2017-07-01T01:46:52.603Z,1003.28
2017-07-01T01:48:01.490Z,1003.27
2017-07-01T01:49:10.376Z,1003.27
2017-07-01T01:50:19.267Z,1003.23
2017-07-01T01:51:28.165Z,1003.19
2017-07-01T01:52:37.455Z,1003.18
2017-07-01T01:53:46.344Z,1003.15
2017-07-01T01:54:55.234Z,1003.12
2017-07-01T01:56:04.773Z,1003.13
2017-07-01T01:57:13.987Z,1003.14
2017-07-01T01:58:23.451Z,1003.09
2017-07-01T01:59:32.668Z,1003.09
2017-07-01T02:00:41.881Z,1003.04
2017-07-01T02:01:50.768Z,1003.02
2017-07-01T02:02:59.664Z,1003.06
2017-07-01T02:04:09.030Z,1003.04
2017-07-01T02:05:18.565Z,1003.01
2017-07-01T02:06:27.779Z,1003.07
2017-07-01T02:07:36.666Z,1003.02
2017-07-01T02:08:46.240Z,1003.02
2017-07-01T02:09:56.272Z,1003.06
2017-07-01T02:11:05.490Z,1003.02
2017-07-01T02:12:14.375Z,1003.06
2017-07-01T02:13:23.268Z,1003.07
2017-07-01T02:14:32.484Z,1003.11
2017-07-01T02:15:41.672Z,1003.03
2017-07-01T02:16:50.569Z,1003.08
2017-07-01T02:17:59.461Z,1003.11
2017-07-01T02:19:08.679Z,1003.09
2017-07-01T02:20:17.568Z,1003.13
2017-07-01T02:21:26.785Z,1003.18
2017-07-01T02:22:36.004Z,1003.1
2017-07-01T02:23:44.895Z,1003.09
2017-07-01T02:24:53.822Z,1003.06
2017-07-01T02:26:02.744Z,1003.08
2017-07-01T02:27:11.732Z,1003.11
2017-07-01T02:28:20.954Z,1003.08
2017-07-01T02:29:30.173Z,1003.07
2017-07-01T02:30:39.112Z,1003.08
2017-07-01T02:31:48.002Z,1003.06
2017-07-01T02:32:57.042Z,1003.07
2017-07-01T02:34:06.258Z,1003.08
2017-07-01T02:35:15.797Z,1003.07
2017-07-01T02:36:24.685Z,1003.1
2017-07-01T02:37:33.897Z,1003.1
2017-07-01T02:38:43.264Z,1003.08
2017-07-01T02:39:52.520Z,1003.08
2017-07-01T02:41:02.059Z,1003.06
2017-07-01T02:42:10.951Z,1003.07
2017-07-01T02:43:20.163Z,1003.09
2017-07-01T02:44:29.475Z,1003.08
2017-07-01T02:45:38.360Z,1003.1
2017-07-01T02:46:47.578Z,1003.07
2017-07-01T02:47:56.466Z,1003.07
2017-07-01T02:49:06.653Z,1003.1
2017-07-01T02:50:16.397Z,1003.1
2017-07-01T02:51:25.615Z,1003.11
2017-07-01T02:52:34.503Z,1003.1
2017-07-01T02:53:43.390Z,1003.1
2017-07-01T02:54:52.934Z,1003.08
2017-07-01T02:56:02.304Z,1003.07
2017-07-01T02:57:11.190Z,1003.1
2017-07-01T02:58:20.082Z,1003.07
2017-07-01T02:59:29.302Z,1003.06
2017-07-01T03:00:38.188Z,1003.06
2017-07-01T03:01:47.480Z,1003.07
2017-07-01T03:02:57.017Z,1003.06
2017-07-01T03:04:05.908Z,1003.05
2017-07-01T03:05:15.771Z,1003.03
2017-07-01T03:06:24.665Z,1003.04
2017-07-01T03:07:33.804Z,1003.01
2017-07-01T03:08:43.021Z,1003.03
2017-07-01T03:09:52.242Z,1003.05
2017-07-01T03:11:01.134Z,1002.97
2017-07-01T03:12:10.021Z,1002.96
2017-07-01T03:13:19.394Z,1002.98
2017-07-01T03:14:28.616Z,1002.95
2017-07-01T03:15:38.154Z,1002.95
2017-07-01T03:16:47.369Z,1002.97
2017-07-01T03:17:56.260Z,1002.97
2017-07-01T03:19:05.573Z,1002.94
2017-07-01T03:20:14.470Z,1002.96
2017-07-01T03:21:23.356Z,1003
2017-07-01T03:22:32.246Z,1002.98
2017-07-01T03:23:41.135Z,1002.97
2017-07-01T03:24:50.674Z,1003.03
2017-07-01T03:25:59.893Z,1003
2017-07-01T03:27:08.781Z,1003.01
2017-07-01T03:28:17.671Z,1002.97
2017-07-01T03:29:26.560Z,1002.99
2017-07-01T03:30:35.554Z,1002.98
2017-07-01T03:31:45.094Z,1003
2017-07-01T03:32:54.312Z,1003.02
2017-07-01T03:34:04.503Z,1003
2017-07-01T03:35:13.392Z,1003.02
2017-07-01T03:36:22.653Z,1003
2017-07-01T03:37:31.537Z,1003.03
2017-07-01T03:38:41.122Z,1003.05
2017-07-01T03:39:50.342Z,1003.08
2017-07-01T03:41:00.205Z,1003.05
2017-07-01T03:42:10.006Z,1003.11
2017-07-01T03:43:18.891Z,1003.14
2017-07-01T03:44:28.103Z,1003.14
2017-07-01T03:45:37.034Z,1003.14
2017-07-01T03:46:45.929Z,1003.18
2017-07-01T03:47:55.192Z,1003.16
2017-07-01T03:49:04.081Z,1003.17
2017-07-01T03:50:12.973Z,1003.19
2017-07-01T03:51:22.839Z,1003.17
2017-07-01T03:52:31.725Z,1003.18
2017-07-01T03:53:41.138Z,1003.15
2017-07-01T03:54:50.035Z,1003.19
2017-07-01T03:55:59.249Z,1003.2
2017-07-01T03:57:08.140Z,1003.14
2017-07-01T03:58:17.353Z,1003.1
2017-07-01T03:59:26.289Z,1003.13
2017-07-01T04:00:35.828Z,1003.12
2017-07-01T04:01:45.037Z,1003.13
2017-07-01T04:02:53.927Z,1003.09
2017-07-01T04:04:02.812Z,1003.06
2017-07-01T04:05:11.857Z,1003.06
2017-07-01T04:06:21.067Z,1003.05
2017-07-01T04:07:29.955Z,1003.08
2017-07-01T04:08:39.167Z,1003.08
2017-07-01T04:09:48.051Z,1003
2017-07-01T04:10:57.041Z,1002.99
2017-07-01T04:12:05.928Z,1003
2017-07-01T04:13:15.140Z,1003.02
2017-07-01T04:14:24.353Z,1003.01
2017-07-01T04:15:33.567Z,1003.01
2017-07-01T04:16:42.939Z,1003.01
2017-07-01T04:17:52.152Z,1003.02
2017-07-01T04:19:01.367Z,1003
2017-07-01T04:20:10.909Z,1003.05
2017-07-01T04:21:19.796Z,1003.06
2017-07-01T04:22:28.745Z,1003.02
2017-07-01T04:23:37.959Z,1003.08
2017-07-01T04:24:47.500Z,1003.06
2017-07-01T04:25:57.040Z,1003.09
2017-07-01T04:27:05.931Z,1003.07
2017-07-01T04:28:15.020Z,1003.09
2017-07-01T04:29:24.562Z,1003.14
2017-07-01T04:30:34.445Z,1003.08
2017-07-01T04:31:43.661Z,1003.08
2017-07-01T04:32:52.550Z,1003.08
2017-07-01T04:34:01.537Z,1003.09
2017-07-01T04:35:10.752Z,1003.09
2017-07-01T04:36:20.616Z,1003.05
2017-07-01T04:37:29.848Z,1003.06
2017-07-01T04:38:39.386Z,1003.07
2017-07-01T04:39:48.939Z,1003.05
2017-07-01T04:40:57.829Z,1003.11
2017-07-01T04:42:06.718Z,1003.08
2017-07-01T04:43:15.936Z,1003.1
2017-07-01T04:44:25.489Z,1003.14
2017-07-01T04:45:35.128Z,1003.14
2017-07-01T04:46:44.016Z,1003.14
2017-07-01T04:47:53.555Z,1003.13
2017-07-01T04:49:03.098Z,1003.13
2017-07-01T04:50:12.638Z,1003.17
2017-07-01T04:51:22.008Z,1003.16
2017-07-01T04:52:30.896Z,1003.16
2017-07-01T04:53:40.435Z,1003.17
2017-07-01T04:54:49.325Z,1003.17
2017-07-01T04:55:58.543Z,1003.14
2017-07-01T04:57:07.758Z,1003.15
2017-07-01T04:58:16.648Z,1003.12
2017-07-01T04:59:26.515Z,1003.18
2017-07-01T05:00:35.407Z,1003.17
2017-07-01T05:01:44.297Z,1003.14
2017-07-01T05:02:53.241Z,1003.17
2017-07-01T05:04:02.129Z,1003.16
2017-07-01T05:05:11.344Z,1003.19
2017-07-01T05:06:20.233Z,1003.15
2017-07-01T05:07:29.451Z,1003.21
2017-07-01T05:08:39.143Z,1003.27
2017-07-01T05:09:48.359Z,1003.24
2017-07-01T05:10:57.253Z,1003.24
2017-07-01T05:12:06.184Z,1003.24
2017-07-01T05:13:15.399Z,1003.27
2017-07-01T05:14:24.295Z,1003.3
2017-07-01T05:15:33.182Z,1003.28
2017-07-01T05:16:42.400Z,1003.32
2017-07-01T05:17:51.611Z,1003.33
2017-07-01T05:19:00.506Z,1003.35
2017-07-01T05:20:09.921Z,1003.34
2017-07-01T05:21:19.462Z,1003.32
2017-07-01T05:22:28.355Z,1003.35
2017-07-01T05:23:37.572Z,1003.37
2017-07-01T05:24:46.792Z,1003.41
2017-07-01T05:25:55.866Z,1003.4
2017-07-01T05:27:05.080Z,1003.41
2017-07-01T05:28:14.293Z,1003.4
2017-07-01T05:29:23.182Z,1003.46
2017-07-01T05:30:32.074Z,1003.44
2017-07-01T05:31:41.387Z,1003.46
2017-07-01T05:32:50.278Z,1003.48
2017-07-01T05:33:59.495Z,1003.52
2017-07-01T05:35:08.390Z,1003.52
2017-07-01T05:36:17.281Z,1003.56
2017-07-01T05:37:26.499Z,1003.58
2017-07-01T05:38:35.389Z,1003.56
2017-07-01T05:39:44.275Z,1003.55
2017-07-01T05:40:53.166Z,1003.64
2017-07-01T05:42:02.379Z,1003.61
2017-07-01T05:43:11.742Z,1003.66
2017-07-01T05:44:20.958Z,1003.67
2017-07-01T05:45:30.501Z,1003.7
2017-07-01T05:46:39.719Z,1003.68
2017-07-01T05:47:48.617Z,1003.75
2017-07-01T05:48:57.607Z,1003.73
2017-07-01T05:50:06.501Z,1003.76
2017-07-01T05:51:16.041Z,1003.76
2017-07-01T05:52:24.932Z,1003.79
2017-07-01T05:53:34.145Z,1003.79
2017-07-01T05:54:43.461Z,1003.86
2017-07-01T05:55:52.352Z,1003.89
2017-07-01T05:57:01.243Z,1003.87
2017-07-01T05:58:11.123Z,1003.92
2017-07-01T05:59:20.011Z,1003.91
2017-07-01T06:00:29.327Z,1003.93
2017-07-01T06:01:38.547Z,1003.91
2017-07-01T06:02:47.436Z,1003.93
2017-07-01T06:03:56.654Z,1003.97
2017-07-01T06:05:06.191Z,1003.95
2017-07-01T06:06:15.508Z,1003.95
2017-07-01T06:07:24.732Z,1003.9
2017-07-01T06:08:33.627Z,1003.9
2017-07-01T06:09:42.518Z,1003.93
2017-07-01T06:10:52.058Z,1003.95
2017-07-01T06:12:01.095Z,1003.96
2017-07-01T06:13:09.989Z,1004.01
2017-07-01T06:14:18.879Z,1003.97
2017-07-01T06:15:28.099Z,1003.99
2017-07-01T06:16:37.311Z,1003.98
2017-07-01T06:17:46.254Z,1003.98
2017-07-01T06:18:55.470Z,1003.98
2017-07-01T06:20:04.682Z,1003.97
2017-07-01T06:21:13.579Z,1003.96
2017-07-01T06:22:22.466Z,1004.05
2017-07-01T06:23:32.158Z,1004.06
2017-07-01T06:24:41.050Z,1004.1
2017-07-01T06:25:50.590Z,1004.07
2017-07-01T06:26:59.488Z,1004.11
2017-07-01T06:28:08.702Z,1004.11
2017-07-01T06:29:18.229Z,1004.1
2017-07-01T06:30:28.096Z,1004.15
2017-07-01T06:31:37.640Z,1004.16
2017-07-01T06:32:46.527Z,1004.16
2017-07-01T06:33:55.751Z,1004.14
2017-07-01T06:35:04.694Z,1004.12
2017-07-01T06:36:13.588Z,1004.09
2017-07-01T06:37:22.522Z,1004.14
2017-07-01T06:38:32.067Z,1004.15
2017-07-01T06:39:41.287Z,1004.15
2017-07-01T06:40:50.652Z,1004.14
2017-07-01T06:41:59.867Z,1004.12
2017-07-01T06:43:08.768Z,1004.19
2017-07-01T06:44:18.311Z,1004.19
2017-07-01T06:45:27.207Z,1004.2
2017-07-01T06:46:36.796Z,1004.19
2017-07-01T06:47:46.014Z,1004.24
2017-07-01T06:48:55.230Z,1004.27
2017-07-01T06:50:04.126Z,1004.24
2017-07-01T06:51:13.361Z,1004.26
2017-07-01T06:52:22.574Z,1004.29
2017-07-01T06:53:31.789Z,1004.27
2017-07-01T06:54:41.002Z,1004.27
2017-07-01T06:55:50.226Z,1004.29
2017-07-01T06:56:59.115Z,1004.29
2017-07-01T06:58:08.681Z,1004.31
2017-07-01T06:59:17.901Z,1004.36
2017-07-01T07:00:27.117Z,1004.34
2017-07-01T07:01:36.011Z,1004.32
2017-07-01T07:02:45.230Z,1004.36
2017-07-01T07:03:54.319Z,1004.35
2017-07-01T07:05:03.215Z,1004.37
2017-07-01T07:06:12.429Z,1004.36
2017-07-01T07:07:21.318Z,1004.4
2017-07-01T07:08:30.211Z,1004.4
2017-07-01T07:09:39.263Z,1004.42
2017-07-01T07:10:48.485Z,1004.43
2017-07-01T07:11:57.379Z,1004.39
2017-07-01T07:13:06.269Z,1004.43
2017-07-01T07:14:15.488Z,1004.43
2017-07-01T07:15:24.428Z,1004.45
2017-07-01T07:16:33.973Z,1004.42
2017-07-01T07:17:42.860Z,1004.43
2017-07-01T07:18:51.752Z,1004.41
2017-07-01T07:20:00.965Z,1004.51
2017-07-01T07:21:09.956Z,1004.51
2017-07-01T07:22:18.843Z,1004.5
2017-07-01T07:23:27.734Z,1004.47
2017-07-01T07:24:36.954Z,1004.54
2017-07-01T07:25:45.856Z,1004.54
2017-07-01T07:26:54.746Z,1004.63
2017-07-01T07:28:03.635Z,1004.6
2017-07-01T07:29:12.532Z,1004.59
2017-07-01T07:30:21.747Z,1004.67
2017-07-01T07:31:30.639Z,1004.65
2017-07-01T07:32:39.831Z,1004.68
2017-07-01T07:33:49.051Z,1004.68
2017-07-01T07:34:57.942Z,1004.69
2017-07-01T07:36:07.177Z,1004.7
2017-07-01T07:37:16.070Z,1004.68
2017-07-01T07:38:25.385Z,1004.68
2017-07-01T07:39:34.277Z,1004.61
2017-07-01T07:40:43.167Z,1004.64
2017-07-01T07:41:52.058Z,1004.61
2017-07-01T07:43:01.275Z,1004.6
2017-07-01T07:44:10.315Z,1004.67
2017-07-01T07:45:19.889Z,1004.65
2017-07-01T07:46:28.781Z,1004.66
2017-07-01T07:47:37.998Z,1004.67
2017-07-01T07:48:46.890Z,1004.71
2017-07-01T07:49:56.160Z,1004.7
2017-07-01T07:51:05.377Z,1004.71
2017-07-01T07:52:14.930Z,1004.74
2017-07-01T07:53:24.466Z,1004.72
2017-07-01T07:54:33.682Z,1004.68
2017-07-01T07:55:43.147Z,1004.67
2017-07-01T07:56:52.046Z,1004.68
2017-07-01T07:58:00.937Z,1004.67
2017-07-01T07:59:09.835Z,1004.72
2017-07-01T08:00:19.702Z,1004.74
2017-07-01T08:01:29.114Z,1004.72
2017-07-01T08:02:38.010Z,1004.71
2017-07-01T08:03:47.226Z,1004.74
2017-07-01T08:04:56.454Z,1004.76
2017-07-01T08:06:05.349Z,1004.79
2017-07-01T08:07:14.339Z,1004.79
2017-07-01T08:08:23.232Z,1004.78
2017-07-01T08:09:32.122Z,1004.83
2017-07-01T08:10:41.340Z,1004.85
2017-07-01T08:11:50.557Z,1004.9
2017-07-01T08:12:59.602Z,1004.89
2017-07-01T08:14:08.820Z,1004.88
2017-07-01T08:15:18.041Z,1004.93
2017-07-01T08:16:27.255Z,1004.96
2017-07-01T08:17:36.467Z,1004.93
2017-07-01T08:18:45.464Z,1004.91
2017-07-01T08:19:54.737Z,1004.95
2017-07-01T08:21:04.279Z,1004.91
2017-07-01T08:22:13.824Z,1004.9
2017-07-01T08:23:23.039Z,1004.97
2017-07-01T08:24:32.414Z,1004.93
2017-07-01T08:25:41.639Z,1004.92
2017-07-01T08:26:51.180Z,1004.94
2017-07-01T08:28:00.394Z,1004.97
2017-07-01T08:29:09.286Z,1005.01
2017-07-01T08:30:18.924Z,1004.99
2017-07-01T08:31:27.815Z,1005.01
2017-07-01T08:32:36.716Z,1005.03
2017-07-01T08:33:45.935Z,1005.09
2017-07-01T08:34:55.162Z,1005.07
2017-07-01T08:36:05.010Z,1005.09
2017-07-01T08:37:14.225Z,1005.06
2017-07-01T08:38:23.118Z,1005.09
2017-07-01T08:39:32.336Z,1005.13
2017-07-01T08:40:41.554Z,1005.08
2017-07-01T08:41:50.546Z,1005.12
2017-07-01T08:42:59.433Z,1005.09
2017-07-01T08:44:08.326Z,1005.16
2017-07-01T08:45:17.216Z,1005.14
2017-07-01T08:46:26.103Z,1005.15
2017-07-01T08:47:35.144Z,1005.17
2017-07-01T08:48:44.036Z,1005.18
2017-07-01T08:49:52.964Z,1005.19
2017-07-01T08:51:02.181Z,1005.18
2017-07-01T08:52:11.067Z,1005.24
2017-07-01T08:53:19.964Z,1005.22
2017-07-01T08:54:28.854Z,1005.28
2017-07-01T08:55:38.076Z,1005.27
2017-07-01T08:56:47.297Z,1005.2
2017-07-01T08:57:56.190Z,1005.25
2017-07-01T08:59:05.234Z,1005.22
2017-07-01T09:00:14.451Z,1005.29
2017-07-01T09:01:23.341Z,1005.32
2017-07-01T09:02:32.229Z,1005.32
2017-07-01T09:03:41.116Z,1005.3
2017-07-01T09:04:50.104Z,1005.37
2017-07-01T09:05:58.992Z,1005.36
2017-07-01T09:07:08.599Z,1005.37
2017-07-01T09:08:17.823Z,1005.36
2017-07-01T09:09:26.714Z,1005.36
2017-07-01T09:10:35.802Z,1005.39
2017-07-01T09:11:44.697Z,1005.43
2017-07-01T09:12:53.586Z,1005.41
2017-07-01T09:14:02.472Z,1005.45
2017-07-01T09:15:11.686Z,1005.43
2017-07-01T09:16:21.105Z,1005.46
2017-07-01T09:17:30.003Z,1005.43
2017-07-01T09:18:39.219Z,1005.41
2017-07-01T09:19:48.115Z,1005.44
2017-07-01T09:20:57.329Z,1005.44
2017-07-01T09:22:06.475Z,1005.45
2017-07-01T09:23:15.367Z,1005.47
2017-07-01T09:24:24.256Z,1005.47
2017-07-01T09:25:33.478Z,1005.49
2017-07-01T09:26:42.370Z,1005.54
2017-07-01T09:27:51.311Z,1005.48
2017-07-01T09:29:00.529Z,1005.52
2017-07-01T09:30:09.421Z,1005.5
2017-07-01T09:31:18.312Z,1005.52
2017-07-01T09:32:27.202Z,1005.59
2017-07-01T09:33:36.527Z,1005.57
2017-07-01T09:34:45.744Z,1005.57
2017-07-01T09:35:54.965Z,1005.62
2017-07-01T09:37:03.854Z,1005.61
2017-07-01T09:38:12.746Z,1005.65
2017-07-01T09:39:22.127Z,1005.68
2017-07-01T09:40:31.046Z,1005.66
2017-07-01T09:41:40.309Z,1005.63
2017-07-01T09:42:49.527Z,1005.68
2017-07-01T09:43:58.779Z,1005.65
2017-07-01T09:45:07.677Z,1005.65
2017-07-01T09:46:16.564Z,1005.68
2017-07-01T09:47:25.451Z,1005.64
2017-07-01T09:48:34.344Z,1005.69
2017-07-01T09:49:43.235Z,1005.69
2017-07-01T09:50:52.276Z,1005.73
2017-07-01T09:52:01.817Z,1005.7
2017-07-01T09:53:11.683Z,1005.75
2017-07-01T09:54:20.578Z,1005.76
2017-07-01T09:55:29.474Z,1005.79
2017-07-01T09:56:38.516Z,1005.82
2017-07-01T09:57:47.733Z,1005.84
2017-07-01T09:58:56.619Z,1005.82
2017-07-01T10:00:06.162Z,1005.92
2017-07-01T10:01:15.388Z,1005.91
2017-07-01T10:02:24.653Z,1005.96
2017-07-01T10:03:33.548Z,1005.96
2017-07-01T10:04:42.766Z,1005.97
2017-07-01T10:05:51.990Z,1005.97
2017-07-01T10:07:00.878Z,1005.98
2017-07-01T10:08:10.153Z,1005.98
2017-07-01T10:09:19.044Z,1006.02
2017-07-01T10:10:28.262Z,1005.98
2017-07-01T10:11:37.158Z,1006.03
2017-07-01T10:12:46.047Z,1006
2017-07-01T10:13:55.037Z,1006.03
2017-07-01T10:15:03.927Z,1006.08
2017-07-01T10:16:12.816Z,1006.08
2017-07-01T10:17:22.034Z,1006.09
2017-07-01T10:18:30.927Z,1006.08
2017-07-01T10:19:40.449Z,1006.07
2017-07-01T10:20:49.342Z,1006.14
2017-07-01T10:21:58.237Z,1006.15
2017-07-01T10:23:07.463Z,1006.14
2017-07-01T10:24:16.681Z,1006.14
2017-07-01T10:25:26.284Z,1006.2
2017-07-01T10:26:35.503Z,1006.17
2017-07-01T10:27:44.392Z,1006.18
2017-07-01T10:28:53.289Z,1006.22
2017-07-01T10:30:02.831Z,1006.25
2017-07-01T10:31:12.194Z,1006.27
2017-07-01T10:32:21.087Z,1006.24
2017-07-01T10:33:29.981Z,1006.25
2017-07-01T10:34:39.856Z,1006.29
2017-07-01T10:35:49.075Z,1006.28
2017-07-01T10:36:57.971Z,1006.28
2017-07-01T10:38:06.872Z,1006.3
2017-07-01T10:39:16.096Z,1006.29
2017-07-01T10:40:25.310Z,1006.31
2017-07-01T10:41:34.199Z,1006.29
2017-07-01T10:42:43.568Z,1006.34
2017-07-01T10:43:52.781Z,1006.35
2017-07-01T10:45:01.998Z,1006.37
2017-07-01T10:46:11.214Z,1006.38
2017-07-01T10:47:20.106Z,1006.37
2017-07-01T10:48:29.484Z,1006.45
2017-07-01T10:49:38.699Z,1006.38
2017-07-01T10:50:47.923Z,1006.42
2017-07-01T10:51:56.825Z,1006.44
2017-07-01T10:53:06.039Z,1006.45
2017-07-01T10:54:15.286Z,1006.45
2017-07-01T10:55:24.181Z,1006.45
2017-07-01T10:56:33.398Z,1006.49
2017-07-01T10:57:42.630Z,1006.53
2017-07-01T10:58:51.847Z,1006.5
2017-07-01T11:00:00.791Z,1006.54
2017-07-01T11:01:09.682Z,1006.54
2017-07-01T11:02:18.902Z,1006.5
2017-07-01T11:03:27.795Z,1006.54
2017-07-01T11:04:37.022Z,1006.52
2017-07-01T11:05:45.914Z,1006.49
2017-07-01T11:06:54.811Z,1006.6
2017-07-01T11:08:04.360Z,1006.57
2017-07-01T11:09:13.255Z,1006.58
2017-07-01T11:10:22.178Z,1006.56
2017-07-01T11:11:31.396Z,1006.61
2017-07-01T11:12:41.261Z,1006.56
2017-07-01T11:13:50.152Z,1006.6
2017-07-01T11:14:59.371Z,1006.62
2017-07-01T11:16:08.915Z,1006.59
2017-07-01T11:17:17.857Z,1006.65
2017-07-01T11:18:26.752Z,1006.61
2017-07-01T11:19:35.968Z,1006.65
2017-07-01T11:20:45.185Z,1006.64
2017-07-01T11:21:54.080Z,1006.71
2017-07-01T11:23:03.020Z,1006.75
2017-07-01T11:24:12.236Z,1006.79
2017-07-01T11:25:21.496Z,1006.77
2017-07-01T11:26:30.389Z,1006.82
2017-07-01T11:27:39.287Z,1006.79
2017-07-01T11:28:48.754Z,1006.83
2017-07-01T11:29:57.974Z,1006.86
2017-07-01T11:31:07.201Z,1006.8
2017-07-01T11:32:16.095Z,1006.85
2017-07-01T11:33:24.985Z,1006.9
2017-07-01T11:34:34.352Z,1006.91
2017-07-01T11:35:43.899Z,1006.96
2017-07-01T11:36:52.789Z,1006.94
2017-07-01T11:38:02.005Z,1006.92
2017-07-01T11:39:10.942Z,1006.93
2017-07-01T11:40:19.885Z,1006.95
2017-07-01T11:41:29.426Z,1006.94
2017-07-01T11:42:38.321Z,1006.98
2017-07-01T11:43:47.537Z,1007
2017-07-01T11:44:56.427Z,1007.02
2017-07-01T11:46:05.644Z,1006.99
2017-07-01T11:47:14.862Z,1007.03
2017-07-01T11:48:24.401Z,1007.07
2017-07-01T11:49:33.299Z,1007.06
2017-07-01T11:50:42.514Z,1007.11
2017-07-01T11:51:51.506Z,1007.1
2017-07-01T11:53:00.727Z,1007.09
2017-07-01T11:54:10.264Z,1007.1
2017-07-01T11:55:19.156Z,1007.14
2017-07-01T11:56:28.713Z,1007.15
2017-07-01T11:57:37.756Z,1007.17
2017-07-01T11:58:46.974Z,1007.16
2017-07-01T11:59:55.870Z,1007.21
2017-07-01T12:01:05.088Z,1007.19
2017-07-01T12:02:13.978Z,1007.24
2017-07-01T12:03:22.921Z,1007.23
2017-07-01T12:04:31.811Z,1007.21
2017-07-01T12:05:41.351Z,1007.26
2017-07-01T12:06:50.894Z,1007.29
2017-07-01T12:07:59.823Z,1007.29
2017-07-01T12:09:09.186Z,1007.34
2017-07-01T12:10:18.086Z,1007.33
2017-07-01T12:11:26.979Z,1007.37
2017-07-01T12:12:35.914Z,1007.41
2017-07-01T12:13:45.487Z,1007.37
2017-07-01T12:14:54.702Z,1007.4
2017-07-01T12:16:03.624Z,1007.39
2017-07-01T12:17:12.845Z,1007.41
2017-07-01T12:18:22.061Z,1007.44
2017-07-01T12:19:30.956Z,1007.43
2017-07-01T12:20:40.000Z,1007.5
2017-07-01T12:21:49.216Z,1007.48
2017-07-01T12:22:58.432Z,1007.51
2017-07-01T12:24:07.652Z,1007.56
2017-07-01T12:25:17.199Z,1007.58
2017-07-01T12:26:26.922Z,1007.56
2017-07-01T12:27:36.141Z,1007.55
2017-07-01T12:28:45.041Z,1007.63
2017-07-01T12:29:53.933Z,1007.58
2017-07-01T12:31:02.832Z,1007.63
2017-07-01T12:32:11.876Z,1007.62
2017-07-01T12:33:20.766Z,1007.66
2017-07-01T12:34:29.661Z,1007.69
2017-07-01T12:35:38.878Z,1007.69
2017-07-01T12:36:47.775Z,1007.69
2017-07-01T12:37:56.763Z,1007.72
2017-07-01T12:39:05.673Z,1007.72
2017-07-01T12:40:14.564Z,1007.72
2017-07-01T12:41:23.495Z,1007.76
2017-07-01T12:42:32.385Z,1007.79
2017-07-01T12:43:41.331Z,1007.8
2017-07-01T12:44:50.549Z,1007.77
2017-07-01T12:45:59.760Z,1007.8
2017-07-01T12:47:08.993Z,1007.85
2017-07-01T12:48:18.209Z,1007.88
2017-07-01T12:49:27.154Z,1007.86
2017-07-01T12:50:36.046Z,1007.84
2017-07-01T12:51:44.938Z,1007.93
2017-07-01T12:52:54.202Z,1007.88
2017-07-01T12:54:03.420Z,1007.92
2017-07-01T12:55:13.034Z,1007.94
2017-07-01T12:56:21.924Z,1007.96
2017-07-01T12:57:31.142Z,1007.94
2017-07-01T12:58:40.355Z,1007.96
2017-07-01T12:59:49.572Z,1007.96
2017-07-01T13:00:58.514Z,1008.03
2017-07-01T13:02:07.410Z,1008.1
2017-07-01T13:03:16.637Z,1008.06
2017-07-01T13:04:25.853Z,1008.05
2017-07-01T13:05:34.747Z,1008.03
2017-07-01T13:06:43.938Z,1008.04
2017-07-01T13:07:52.830Z,1008.02
2017-07-01T13:09:02.047Z,1008.03
2017-07-01T13:10:11.308Z,1008.07
2017-07-01T13:11:20.534Z,1008.08
2017-07-01T13:12:29.530Z,1008.09
2017-07-01T13:13:39.071Z,1008.06
2017-07-01T13:14:48.291Z,1008.15
2017-07-01T13:15:57.185Z,1008.18
2017-07-01T13:17:06.402Z,1008.23
2017-07-01T13:18:15.496Z,1008.24
2017-07-01T13:19:24.389Z,1008.31
2017-07-01T13:20:33.277Z,1008.34
2017-07-01T13:21:42.494Z,1008.47
2017-07-01T13:22:51.388Z,1008.42
2017-07-01T13:24:00.580Z,1008.46
2017-07-01T13:25:10.124Z,1008.44
2017-07-01T13:26:19.016Z,1008.5
2017-07-01T13:27:28.229Z,1008.53
2017-07-01T13:28:37.448Z,1008.57
2017-07-01T13:29:46.441Z,1008.56
2017-07-01T13:30:55.335Z,1008.53
2017-07-01T13:32:04.224Z,1008.56
2017-07-01T13:33:13.438Z,1008.58
2017-07-01T13:34:22.329Z,1008.53
2017-07-01T13:35:31.798Z,1008.58
2017-07-01T13:36:40.690Z,1008.61
2017-07-01T13:37:49.955Z,1008.6
2017-07-01T13:38:59.171Z,1008.62
2017-07-01T13:40:08.062Z,1008.63
2017-07-01T13:41:17.528Z,1008.67
2017-07-01T13:42:26.415Z,1008.74
2017-07-01T13:43:35.650Z,1008.74
2017-07-01T13:44:45.193Z,1008.73
2017-07-01T13:45:54.410Z,1008.76
2017-07-01T13:47:03.406Z,1008.77
2017-07-01T13:48:12.305Z,1008.77
2017-07-01T13:49:21.850Z,1008.76
2017-07-01T13:50:31.078Z,1008.78
2017-07-01T13:51:39.971Z,1008.77
2017-07-01T13:52:48.960Z,1008.79
2017-07-01T13:53:57.862Z,1008.77
2017-07-01T13:55:06.755Z,1008.77
2017-07-01T13:56:15.968Z,1008.75
2017-07-01T13:57:25.188Z,1008.82
2017-07-01T13:58:34.655Z,1008.84
2017-07-01T13:59:44.196Z,1008.84